Jack Guidry — WDF2422 — position and weather

sailwx.info

Track history (hours):
 
Tides and Currents Weather Stations Pressure Air Temp Water Temp Dewpoint Dewpoint Depression Visibility Wind Speed Wind Dir Waves Ship Positions

Jack Guidry

Owner: Enterprise Marine Services, LLC, San Antonio, TX. More information available from US FCC via Universal Licensing System and Coast Guard Vessel Documentation Center.

Last reported at 2015-Feb-28 01:20 UTC. Time now 2015-Feb-28 05:26 UTC.
Position N 29°47' W 095°05'.

Length 22 m; draft 2.5 m.

Type: Other ship. MMSI: 367003430.

Date/timePositionNaut miles runAvg speedWind from/ knotsBaromVisibWave heightAir tempDewpointWater temp
2015-Feb-28 01:20N 29°47' W 095°05'0 0.1
2015-Feb-28 00:33N 29°47' W 095°05'0 0.0
2015-Feb-27 23:28N 29°47' W 095°05'0 0.0
2015-Feb-27 22:34N 29°47' W 095°05'0 0.0
2015-Feb-27 21:27N 29°47' W 095°05'0 0.0
2015-Feb-27 20:33N 29°47' W 095°05'0 0.1
2015-Feb-27 19:33N 29°47' W 095°05'0 0.0
2015-Feb-27 18:34N 29°47' W 095°05'0 0.0
2015-Feb-27 17:04N 29°47' W 095°05'0 0.0
2015-Feb-27 16:32N 29°47' W 095°05'0 0.1
2015-Feb-27 15:34N 29°47' W 095°05'0 0.0
2015-Feb-27 14:31N 29°47' W 095°05'0 0.0
2015-Feb-27 13:33N 29°47' W 095°05'0 0.0
2015-Feb-27 12:33N 29°47' W 095°05'0 0.0
2015-Feb-27 11:33N 29°47' W 095°05'0 0.0
2015-Feb-27 10:33N 29°47' W 095°05'0 0.0
2015-Feb-27 09:32N 29°47' W 095°05'0 0.0
2015-Feb-27 08:33N 29°47' W 095°05'0 0.0
2015-Feb-27 07:29N 29°47' W 095°05'0 0.0
2015-Feb-27 06:29N 29°47' W 095°05'0 0.0
2015-Feb-27 05:33N 29°47' W 095°05'0 0.0
2015-Feb-27 04:32N 29°47' W 095°05'0 0.0
2015-Feb-27 03:33N 29°47' W 095°05'0 0.0
2015-Feb-27 02:33N 29°47' W 095°05'0 0.0
2015-Feb-27 01:33N 29°47' W 095°05'0 0.0
2015-Feb-27 00:33N 29°47' W 095°05'0 0.0
2015-Feb-26 23:33N 29°47' W 095°05'0 0.0
2015-Feb-26 22:33N 29°47' W 095°05'0 0.0
2015-Feb-26 21:33N 29°47' W 095°05'0 0.0
2015-Feb-26 20:33N 29°47' W 095°05'0 0.0
2015-Feb-26 18:10N 29°47' W 095°05'0 0.0
2015-Feb-26 16:23N 29°47' W 095°05'0 0.2
2015-Feb-26 15:26N 29°47' W 095°05'0 0.2
2015-Feb-26 14:33N 29°47' W 095°05'0 0.0
2015-Feb-26 13:17N 29°47' W 095°05'0 0.0
2015-Feb-26 12:22N 29°47' W 095°05'0 0.0
2015-Feb-26 11:31N 29°47' W 095°05'0 0.0
2015-Feb-26 10:25N 29°47' W 095°05'0 0.0
2015-Feb-26 09:29N 29°47' W 095°05'0 0.0
2015-Feb-26 08:29N 29°47' W 095°05'0 0.0
2015-Feb-26 07:32N 29°47' W 095°05'0 0.0
2015-Feb-26 05:24N 29°47' W 095°05'0 0.0
2015-Feb-26 04:18N 29°47' W 095°05'0 0.0
2015-Feb-26 03:24N 29°47' W 095°05'0 0.0
2015-Feb-25 23:12N 29°47' W 095°05'0 0.0
2015-Feb-25 19:07N 29°47' W 095°05'0 0.0
2015-Feb-25 18:05N 29°47' W 095°05'0 0.0
2015-Feb-25 15:32N 29°47' W 095°05'0 0.1
2015-Feb-25 14:31N 29°47' W 095°05'0 0.0
2015-Feb-24 21:15N 29°47' W 095°05'0 0.1
2015-Feb-24 20:31N 29°47' W 095°05'0 0.1
2015-Feb-24 19:18N 29°47' W 095°05'0 0.0
2015-Feb-24 18:25N 29°47' W 095°05'1 1.4
2015-Feb-24 17:24N 29°46' W 095°05'3 3.2
2015-Feb-24 16:33N 29°44' W 095°03'6 6.2
2015-Feb-24 15:33N 29°39' W 094°58'7 7.3
2015-Feb-24 14:33N 29°33' W 094°54'  
2015-Feb-21 17:21N 29°29' W 094°52'6 7.4
2015-Feb-21 16:32N 29°34' W 094°56'7 7.0
2015-Feb-21 15:33N 29°41' W 094°59'6 5.7
2015-Feb-21 14:33N 29°44' W 095°04'3 2.7
2015-Feb-21 13:33N 29°46' W 095°06'0 0.1
2015-Feb-21 12:33N 29°46' W 095°06'0 0.0
2015-Feb-21 11:33N 29°46' W 095°06'0 0.0
2015-Feb-21 10:33N 29°46' W 095°06'0 0.0
2015-Feb-21 09:33N 29°46' W 095°06'0 0.0
2015-Feb-21 08:33N 29°46' W 095°06'0 0.0
2015-Feb-21 07:33N 29°46' W 095°06'0 0.0
2015-Feb-21 06:32N 29°46' W 095°06'0 0.0
2015-Feb-21 05:03N 29°46' W 095°06'0 0.0
2015-Feb-21 04:26N 29°46' W 095°06'0 0.0
2015-Feb-21 03:28N 29°46' W 095°06'0 0.0
2015-Feb-21 02:33N 29°46' W 095°06'2 1.8
2015-Feb-21 01:30N 29°47' W 095°04'0 0.1
2015-Feb-21 00:32N 29°47' W 095°04'2 2.0
2015-Feb-20 23:33N 29°46' W 095°06'0 0.0
2015-Feb-20 22:33N 29°46' W 095°06'0 0.0
2015-Feb-20 21:33N 29°46' W 095°06'0 0.3
2015-Feb-20 20:33N 29°46' W 095°06'1 1.4
2015-Feb-20 19:33N 29°47' W 095°05'0 0.0
2015-Feb-20 18:33N 29°47' W 095°05'1 0.6
2015-Feb-20 17:33N 29°47' W 095°05'0 0.0
2015-Feb-20 16:31N 29°47' W 095°05'0 0.0
2015-Feb-20 15:33N 29°47' W 095°05'0 0.0
2015-Feb-20 14:33N 29°47' W 095°05'0 0.0
2015-Feb-20 13:33N 29°47' W 095°05'0 0.0
2015-Feb-20 12:33N 29°47' W 095°05'0 0.0
2015-Feb-20 11:33N 29°47' W 095°05'0 0.0
2015-Feb-20 08:31N 29°47' W 095°05'0 0.0
2015-Feb-20 07:26N 29°47' W 095°05'0 0.0
2015-Feb-20 06:13N 29°47' W 095°05'0 0.0
2015-Feb-20 05:31N 29°47' W 095°05'0 0.0
2015-Feb-20 03:23N 29°47' W 095°05'0 0.1
2015-Feb-20 02:33N 29°47' W 095°05'0 0.0
2015-Feb-20 01:33N 29°47' W 095°05'0 0.1
2015-Feb-20 00:33N 29°47' W 095°05'2 2.0
2015-Feb-19 23:33N 29°45' W 095°06'0 0.0
2015-Feb-19 22:33N 29°46' W 095°06'0 0.1
2015-Feb-19 21:33N 29°45' W 095°06'2 1.8
2015-Feb-19 20:33N 29°47' W 095°05'0 0.0
2015-Feb-19 19:33N 29°47' W 095°05'0 0.0
2015-Feb-19 18:33N 29°47' W 095°05'0 0.0
2015-Feb-19 17:33N 29°47' W 095°05'0 0.0
2015-Feb-19 16:21N 29°47' W 095°05'0 0.0
2015-Feb-19 15:32N 29°47' W 095°05'0 0.0
2015-Feb-19 14:32N 29°47' W 095°05'0 0.0
2015-Feb-19 13:33N 29°47' W 095°05'3 3.0
2015-Feb-19 12:33N 29°44' W 095°07'7 6.6
2015-Feb-19 11:33N 29°43' W 095°14'1 0.7
2015-Feb-19 10:33N 29°43' W 095°15'4 4.1
2015-Feb-19 09:33N 29°45' W 095°10'4 4.3
2015-Feb-19 08:33N 29°46' W 095°05'2 2.2
2015-Feb-19 07:33N 29°47' W 095°04'0 0.0
2015-Feb-19 06:33N 29°47' W 095°04'0 0.0
2015-Feb-19 05:33N 29°47' W 095°04'0 0.1
2015-Feb-19 04:33N 29°47' W 095°04'0 0.0
2015-Feb-19 03:33N 29°47' W 095°04'0 0.1
2015-Feb-19 02:33N 29°47' W 095°04'0 0.0
2015-Feb-19 01:33N 29°47' W 095°04'0 0.0
2015-Feb-19 00:33N 29°47' W 095°04'1 1.2
2015-Feb-18 23:30N 29°46' W 095°05'1 1.1
2015-Feb-18 22:33N 29°47' W 095°05'0 0.1
2015-Feb-18 21:18N 29°47' W 095°05'0 0.2
2015-Feb-18 20:33N 29°47' W 095°05'0 0.0
2015-Feb-18 19:34N 29°47' W 095°05'0 0.0
2015-Feb-18 18:34N 29°47' W 095°05'0 0.0
2015-Feb-18 17:33N 29°47' W 095°05'0 0.2
2015-Feb-18 16:33N 29°47' W 095°05'1 1.1
2015-Feb-18 15:33N 29°46' W 095°05'1 1.1
2015-Feb-18 14:33N 29°47' W 095°05'0 0.0
2015-Feb-18 13:33N 29°47' W 095°05'0 0.0
2015-Feb-18 12:34N 29°47' W 095°05'0 0.0
2015-Feb-18 11:33N 29°47' W 095°05'0 0.0
2015-Feb-18 10:34N 29°47' W 095°05'0 0.0
2015-Feb-18 09:34N 29°47' W 095°05'0 0.0
2015-Feb-18 08:34N 29°47' W 095°05'871870.3
2015-Feb-18 07:33N 29°47' W 111°48'871870.8
2015-Feb-18 06:34N 29°47' W 095°05'0 0.0
2015-Feb-18 05:33N 29°47' W 095°05'0 0.0
2015-Feb-18 04:33N 29°47' W 095°05'0 0.0
2015-Feb-18 03:33N 29°47' W 095°05'0 0.0
2015-Feb-18 02:33N 29°47' W 095°05'0 0.0
2015-Feb-18 01:33N 29°47' W 095°05'  
Track history (hours):
 
Tides and Currents Weather Stations Pressure Air Temp Water Temp Dewpoint Dewpoint Depression Visibility Wind Speed Wind Dir Waves Ship Positions

Jack Guidry

Owner: Enterprise Marine Services, LLC, San Antonio, TX. More information available from US FCC via Universal Licensing System and Coast Guard Vessel Documentation Center.

Last reported at 2015-Feb-28 01:20 UTC. Time now 2015-Feb-28 05:26 UTC.
Position N 29°47' W 095°05'.

Length 22 m; draft 2.5 m.

Type: Other ship. MMSI: 367003430.

Date/timePositionNaut miles runAvg speedWind from/ knotsBaromVisibWave heightAir tempDewpointWater temp
2015-Feb-28 01:20N 29°47' W 095°05'0 0.1
2015-Feb-28 00:33N 29°47' W 095°05'0 0.0
2015-Feb-27 23:28N 29°47' W 095°05'0 0.0
2015-Feb-27 22:34N 29°47' W 095°05'0 0.0
2015-Feb-27 21:27N 29°47' W 095°05'0 0.0
2015-Feb-27 20:33N 29°47' W 095°05'0 0.1
2015-Feb-27 19:33N 29°47' W 095°05'0 0.0
2015-Feb-27 18:34N 29°47' W 095°05'0 0.0
2015-Feb-27 17:04N 29°47' W 095°05'0 0.0
2015-Feb-27 16:32N 29°47' W 095°05'0 0.1
2015-Feb-27 15:34N 29°47' W 095°05'0 0.0
2015-Feb-27 14:31N 29°47' W 095°05'0 0.0
2015-Feb-27 13:33N 29°47' W 095°05'0 0.0
2015-Feb-27 12:33N 29°47' W 095°05'0 0.0
2015-Feb-27 11:33N 29°47' W 095°05'0 0.0
2015-Feb-27 10:33N 29°47' W 095°05'0 0.0
2015-Feb-27 09:32N 29°47' W 095°05'0 0.0
2015-Feb-27 08:33N 29°47' W 095°05'0 0.0
2015-Feb-27 07:29N 29°47' W 095°05'0 0.0
2015-Feb-27 06:29N 29°47' W 095°05'0 0.0
2015-Feb-27 05:33N 29°47' W 095°05'0 0.0
2015-Feb-27 04:32N 29°47' W 095°05'0 0.0
2015-Feb-27 03:33N 29°47' W 095°05'0 0.0
2015-Feb-27 02:33N 29°47' W 095°05'0 0.0
2015-Feb-27 01:33N 29°47' W 095°05'0 0.0
2015-Feb-27 00:33N 29°47' W 095°05'0 0.0
2015-Feb-26 23:33N 29°47' W 095°05'0 0.0
2015-Feb-26 22:33N 29°47' W 095°05'0 0.0
2015-Feb-26 21:33N 29°47' W 095°05'0 0.0
2015-Feb-26 20:33N 29°47' W 095°05'0 0.0
2015-Feb-26 18:10N 29°47' W 095°05'0 0.0
2015-Feb-26 16:23N 29°47' W 095°05'0 0.2
2015-Feb-26 15:26N 29°47' W 095°05'0 0.2
2015-Feb-26 14:33N 29°47' W 095°05'0 0.0
2015-Feb-26 13:17N 29°47' W 095°05'0 0.0
2015-Feb-26 12:22N 29°47' W 095°05'0 0.0
2015-Feb-26 11:31N 29°47' W 095°05'0 0.0
2015-Feb-26 10:25N 29°47' W 095°05'0 0.0
2015-Feb-26 09:29N 29°47' W 095°05'0 0.0
2015-Feb-26 08:29N 29°47' W 095°05'0 0.0
2015-Feb-26 07:32N 29°47' W 095°05'0 0.0
2015-Feb-26 05:24N 29°47' W 095°05'0 0.0
2015-Feb-26 04:18N 29°47' W 095°05'0 0.0
2015-Feb-26 03:24N 29°47' W 095°05'0 0.0
2015-Feb-25 23:12N 29°47' W 095°05'0 0.0
2015-Feb-25 19:07N 29°47' W 095°05'0 0.0
2015-Feb-25 18:05N 29°47' W 095°05'0 0.0
2015-Feb-25 15:32N 29°47' W 095°05'0 0.1
2015-Feb-25 14:31N 29°47' W 095°05'0 0.0
2015-Feb-24 21:15N 29°47' W 095°05'0 0.1
2015-Feb-24 20:31N 29°47' W 095°05'0 0.1
2015-Feb-24 19:18N 29°47' W 095°05'0 0.0
2015-Feb-24 18:25N 29°47' W 095°05'1 1.4
2015-Feb-24 17:24N 29°46' W 095°05'3 3.2
2015-Feb-24 16:33N 29°44' W 095°03'6 6.2
2015-Feb-24 15:33N 29°39' W 094°58'7 7.3
2015-Feb-24 14:33N 29°33' W 094°54'  
2015-Feb-21 17:21N 29°29' W 094°52'6 7.4
2015-Feb-21 16:32N 29°34' W 094°56'7 7.0
2015-Feb-21 15:33N 29°41' W 094°59'6 5.7
2015-Feb-21 14:33N 29°44' W 095°04'3 2.7
2015-Feb-21 13:33N 29°46' W 095°06'0 0.1
2015-Feb-21 12:33N 29°46' W 095°06'0 0.0
2015-Feb-21 11:33N 29°46' W 095°06'0 0.0
2015-Feb-21 10:33N 29°46' W 095°06'0 0.0
2015-Feb-21 09:33N 29°46' W 095°06'0 0.0
2015-Feb-21 08:33N 29°46' W 095°06'0 0.0
2015-Feb-21 07:33N 29°46' W 095°06'0 0.0
2015-Feb-21 06:32N 29°46' W 095°06'0 0.0
2015-Feb-21 05:03N 29°46' W 095°06'0 0.0
2015-Feb-21 04:26N 29°46' W 095°06'0 0.0
2015-Feb-21 03:28N 29°46' W 095°06'0 0.0
2015-Feb-21 02:33N 29°46' W 095°06'2 1.8
2015-Feb-21 01:30N 29°47' W 095°04'0 0.1
2015-Feb-21 00:32N 29°47' W 095°04'2 2.0
2015-Feb-20 23:33N 29°46' W 095°06'0 0.0
2015-Feb-20 22:33N 29°46' W 095°06'0 0.0
2015-Feb-20 21:33N 29°46' W 095°06'0 0.3
2015-Feb-20 20:33N 29°46' W 095°06'1 1.4
2015-Feb-20 19:33N 29°47' W 095°05'0 0.0
2015-Feb-20 18:33N 29°47' W 095°05'1 0.6
2015-Feb-20 17:33N 29°47' W 095°05'0 0.0
2015-Feb-20 16:31N 29°47' W 095°05'0 0.0
2015-Feb-20 15:33N 29°47' W 095°05'0 0.0
2015-Feb-20 14:33N 29°47' W 095°05'0 0.0
2015-Feb-20 13:33N 29°47' W 095°05'0 0.0
2015-Feb-20 12:33N 29°47' W 095°05'0 0.0
2015-Feb-20 11:33N 29°47' W 095°05'0 0.0
2015-Feb-20 08:31N 29°47' W 095°05'0 0.0
2015-Feb-20 07:26N 29°47' W 095°05'0 0.0
2015-Feb-20 06:13N 29°47' W 095°05'0 0.0
2015-Feb-20 05:31N 29°47' W 095°05'0 0.0
2015-Feb-20 03:23N 29°47' W 095°05'0 0.1
2015-Feb-20 02:33N 29°47' W 095°05'0 0.0
2015-Feb-20 01:33N 29°47' W 095°05'0 0.1
2015-Feb-20 00:33N 29°47' W 095°05'2 2.0
2015-Feb-19 23:33N 29°45' W 095°06'0 0.0
2015-Feb-19 22:33N 29°46' W 095°06'0 0.1
2015-Feb-19 21:33N 29°45' W 095°06'2 1.8
2015-Feb-19 20:33N 29°47' W 095°05'0 0.0
2015-Feb-19 19:33N 29°47' W 095°05'0 0.0
2015-Feb-19 18:33N 29°47' W 095°05'0 0.0
2015-Feb-19 17:33N 29°47' W 095°05'0 0.0
2015-Feb-19 16:21N 29°47' W 095°05'0 0.0
2015-Feb-19 15:32N 29°47' W 095°05'0 0.0
2015-Feb-19 14:32N 29°47' W 095°05'0 0.0
2015-Feb-19 13:33N 29°47' W 095°05'3 3.0
2015-Feb-19 12:33N 29°44' W 095°07'7 6.6
2015-Feb-19 11:33N 29°43' W 095°14'1 0.7
2015-Feb-19 10:33N 29°43' W 095°15'4 4.1
2015-Feb-19 09:33N 29°45' W 095°10'4 4.3
2015-Feb-19 08:33N 29°46' W 095°05'2 2.2
2015-Feb-19 07:33N 29°47' W 095°04'0 0.0
2015-Feb-19 06:33N 29°47' W 095°04'0 0.0
2015-Feb-19 05:33N 29°47' W 095°04'0 0.1
2015-Feb-19 04:33N 29°47' W 095°04'0 0.0
2015-Feb-19 03:33N 29°47' W 095°04'0 0.1
2015-Feb-19 02:33N 29°47' W 095°04'0 0.0
2015-Feb-19 01:33N 29°47' W 095°04'0 0.0
2015-Feb-19 00:33N 29°47' W 095°04'1 1.2
2015-Feb-18 23:30N 29°46' W 095°05'1 1.1
2015-Feb-18 22:33N 29°47' W 095°05'0 0.1
2015-Feb-18 21:18N 29°47' W 095°05'0 0.2
2015-Feb-18 20:33N 29°47' W 095°05'0 0.0
2015-Feb-18 19:34N 29°47' W 095°05'0 0.0
2015-Feb-18 18:34N 29°47' W 095°05'0 0.0
2015-Feb-18 17:33N 29°47' W 095°05'0 0.2
2015-Feb-18 16:33N 29°47' W 095°05'1 1.1
2015-Feb-18 15:33N 29°46' W 095°05'1 1.1
2015-Feb-18 14:33N 29°47' W 095°05'0 0.0
2015-Feb-18 13:33N 29°47' W 095°05'0 0.0
2015-Feb-18 12:34N 29°47' W 095°05'0 0.0
2015-Feb-18 11:33N 29°47' W 095°05'0 0.0
2015-Feb-18 10:34N 29°47' W 095°05'0 0.0
2015-Feb-18 09:34N 29°47' W 095°05'0 0.0
2015-Feb-18 08:34N 29°47' W 095°05'871870.3
2015-Feb-18 07:33N 29°47' W 111°48'871870.8
2015-Feb-18 06:34N 29°47' W 095°05'0 0.0
2015-Feb-18 05:33N 29°47' W 095°05'0 0.0
2015-Feb-18 04:33N 29°47' W 095°05'0 0.0
2015-Feb-18 03:33N 29°47' W 095°05'0 0.0
2015-Feb-18 02:33N 29°47' W 095°05'0 0.0
2015-Feb-18 01:33N 29°47' W 095°05'  

Dump ship's entire track history